createdAt,value
2024-01-14T00:00:50.191Z,97340.56
2024-01-14T00:04:54.309Z,97328.22
2024-01-14T00:08:56.980Z,97319.59
2024-01-14T00:12:59.661Z,97313.59
2024-01-14T00:17:02.324Z,97295.22
2024-01-14T00:21:06.877Z,97299.41
2024-01-14T00:25:10.484Z,97300.81
2024-01-14T00:29:13.186Z,97277.56
2024-01-14T00:33:16.093Z,97282.63
2024-01-14T00:37:20.255Z,97282.84
2024-01-14T00:41:22.971Z,97259.91
2024-01-14T00:45:25.742Z,97269.41
2024-01-14T00:49:28.629Z,97246.72
2024-01-14T00:53:32.883Z,97256.06
2024-01-14T00:57:35.602Z,97248.00
2024-01-14T01:01:38.577Z,97249.69
2024-01-14T01:05:41.410Z,97243.72
2024-01-14T01:09:45.543Z,97242.72
2024-01-14T01:13:48.808Z,97240.22
2024-01-14T01:17:51.642Z,97237.84
2024-01-14T01:21:54.411Z,97235.34
2024-01-14T01:25:58.784Z,97209.91
2024-01-14T01:30:01.575Z,97211.56
2024-01-14T01:34:04.469Z,97201.00
2024-01-14T01:38:07.542Z,97216.44
2024-01-14T01:42:11.727Z,97210.63
2024-01-14T01:46:14.533Z,97191.03
2024-01-14T01:50:17.718Z,97192.13
2024-01-14T01:54:22.562Z,97180.72
2024-01-14T01:58:26.675Z,97191.16
2024-01-14T02:02:29.465Z,97193.78
2024-01-14T02:06:34.873Z,97193.78
2024-01-14T02:10:37.936Z,97183.50
2024-01-14T02:14:41.956Z,97174.88
2024-01-14T02:18:44.851Z,97167.78
2024-01-14T02:22:53.816Z,97175.59
2024-01-14T02:26:57.971Z,97168.03
2024-01-14T02:31:01.101Z,97164.31
2024-01-14T02:35:03.858Z,97169.84
2024-01-14T02:39:07.084Z,97148.72
2024-01-14T02:43:11.144Z,97152.91
2024-01-14T02:47:13.825Z,97153.88
2024-01-14T02:51:17.160Z,97155.81
2024-01-14T02:55:19.887Z,97149.56
2024-01-14T02:59:23.926Z,97147.03
2024-01-14T03:03:26.652Z,97138.28
2024-01-14T03:07:29.353Z,97127.84
2024-01-14T03:11:32.014Z,97125.38
2024-01-14T03:15:36.085Z,97128.25
2024-01-14T03:19:38.943Z,97124.78
2024-01-14T03:23:41.638Z,97114.22
2024-01-14T03:27:45.618Z,97103.66
2024-01-14T03:31:49.768Z,97091.81
2024-01-14T03:35:52.460Z,97105.47
2024-01-14T03:39:55.280Z,97103.22
2024-01-14T03:43:58.029Z,97113.53
2024-01-14T03:48:02.441Z,97101.97
2024-01-14T03:52:05.564Z,97106.19
2024-01-14T03:56:08.248Z,97103.22
2024-01-14T04:00:13.978Z,97096.28
2024-01-14T04:04:18.090Z,97095.16
2024-01-14T04:08:20.863Z,97090.59
2024-01-14T04:12:23.621Z,97099.47
2024-01-14T04:16:26.310Z,97082.22
2024-01-14T04:20:30.334Z,97086.41
2024-01-14T04:24:33.113Z,97087.25
2024-01-14T04:28:35.867Z,97079.72
2024-01-14T04:32:38.552Z,97074.31
2024-01-14T04:36:42.909Z,97071.41
2024-01-14T04:40:45.729Z,97070.97
2024-01-14T04:44:48.428Z,97071.09
2024-01-14T04:48:51.232Z,97083.31
2024-01-14T04:52:55.360Z,97074.47
2024-01-14T04:56:58.901Z,97072.78
2024-01-14T05:01:01.816Z,97057.91
2024-01-14T05:05:05.032Z,97056.34
2024-01-14T05:09:09.973Z,97057.91
2024-01-14T05:13:13.134Z,97055.13
2024-01-14T05:17:16.332Z,97059.44
2024-01-14T05:21:19.272Z,97050.25
2024-01-14T05:25:23.488Z,97052.75
2024-01-14T05:29:26.234Z,97049.00
2024-01-14T05:33:29.109Z,97051.41
2024-01-14T05:37:32.543Z,97048.31
2024-01-14T05:41:36.580Z,97030.78
2024-01-14T05:45:40.575Z,97022.16
2024-01-14T05:49:43.617Z,97021.34
2024-01-14T05:53:47.014Z,97023.03
2024-01-14T05:57:51.096Z,97000.22
2024-01-14T06:01:53.847Z,97004.56
2024-01-14T06:05:56.750Z,96994.81
2024-01-14T06:09:59.815Z,96997.34
2024-01-14T06:14:03.825Z,96999.69
2024-01-14T06:18:06.972Z,97003.03
2024-01-14T06:22:09.805Z,97005.97
2024-01-14T06:26:17.234Z,97009.44
2024-01-14T06:30:21.228Z,97022.50
2024-01-14T06:34:24.065Z,97025.00
2024-01-14T06:38:26.771Z,97022.38
2024-01-14T06:42:29.810Z,97028.34
2024-01-14T06:46:33.911Z,97021.72
2024-01-14T06:50:37.004Z,97046.16
2024-01-14T06:54:40.491Z,97039.19
2024-01-14T06:58:43.372Z,97039.50
2024-01-14T07:02:48.013Z,97031.28
2024-01-14T07:06:50.713Z,97034.50
2024-01-14T07:10:53.417Z,97043.38
2024-01-14T07:14:56.134Z,97030.47
2024-01-14T07:19:00.942Z,97028.66
2024-01-14T07:23:40.614Z,97035.03
2024-01-14T07:27:26.437Z,97015.84
2024-01-14T07:31:31.597Z,97005.16
2024-01-14T07:35:35.818Z,97020.59
2024-01-14T07:39:38.528Z,96998.91
2024-01-14T07:43:41.301Z,97016.72
2024-01-14T07:47:45.124Z,97016.84
2024-01-14T07:51:49.142Z,97023.94
2024-01-14T07:55:51.828Z,97020.84
2024-01-14T07:59:54.527Z,97026.59
2024-01-14T08:03:57.343Z,97030.34
2024-01-14T08:08:01.380Z,97024.19
2024-01-14T08:12:07.195Z,97024.09
2024-01-14T08:16:09.945Z,97021.19
2024-01-14T08:20:13.406Z,97025.63
2024-01-14T08:24:17.462Z,97035.38
2024-01-14T08:28:20.324Z,97039.53
2024-01-14T08:32:23.017Z,97046.22
2024-01-14T08:36:26.330Z,97030.63
2024-01-14T08:40:30.810Z,97043.00
2024-01-14T08:44:33.588Z,97035.31
2024-01-14T08:48:36.558Z,97046.91
2024-01-14T08:52:39.700Z,97042.00
2024-01-14T08:56:43.808Z,97043.81
2024-01-14T09:00:46.660Z,97035.50
2024-01-14T09:04:49.472Z,97033.72
2024-01-14T09:08:52.246Z,97020.69
2024-01-14T09:12:56.303Z,97030.59
2024-01-14T09:16:58.986Z,97036.53
2024-01-14T09:21:01.756Z,97027.06
2024-01-14T09:25:05.088Z,97031.97
2024-01-14T09:29:09.114Z,97045.44
2024-01-14T09:33:11.944Z,97030.44
2024-01-14T09:37:15.057Z,97030.44
2024-01-14T09:41:30.301Z,97018.38
2024-01-14T09:49:43.156Z,97009.06
2024-01-14T09:53:45.959Z,96995.06
2024-01-14T09:57:50.946Z,96994.06
2024-01-14T10:01:56.213Z,96987.41
2024-01-14T10:06:00.565Z,96983.78
2024-01-14T10:10:03.486Z,96969.44
2024-01-14T10:14:06.176Z,96968.06
2024-01-14T10:18:10.252Z,96983.78
2024-01-14T10:22:17.191Z,96958.63
2024-01-14T10:26:24.233Z,96956.22
2024-01-14T10:30:27.440Z,96949.44
2024-01-14T10:34:31.878Z,96948.03
2024-01-14T10:38:34.722Z,96936.59
2024-01-14T10:42:38.070Z,96925.19
2024-01-14T10:46:43.965Z,96939.22
2024-01-14T10:50:54.291Z,96933.81
2024-01-14T10:54:59.978Z,96922.56
2024-01-14T10:59:05.786Z,96913.34
2024-01-14T11:03:10.380Z,96914.44
2024-01-14T11:07:15.023Z,96916.19
2024-01-14T11:11:20.113Z,96906.25
2024-01-14T11:15:28.394Z,96907.31
2024-01-14T11:19:38.020Z,96902.06
2024-01-14T11:23:43.316Z,96899.72
2024-01-14T11:27:46.414Z,96891.91
2024-01-14T11:32:10.256Z,96880.28
2024-01-14T11:36:13.011Z,96872.25
2024-01-14T11:40:26.211Z,96864.00
2024-01-14T11:44:32.594Z,96871.84
2024-01-14T11:48:35.542Z,96863.53
2024-01-14T11:52:38.357Z,96857.28
2024-01-14T11:56:42.586Z,96848.50
2024-01-14T12:00:47.559Z,96845.44
2024-01-14T12:04:57.457Z,96819.44
2024-01-14T12:09:07.848Z,96805.88
2024-01-14T12:13:12.170Z,96791.38
2024-01-14T12:17:14.984Z,96776.97
2024-01-14T12:21:26.938Z,96776.78
2024-01-14T12:25:35.448Z,96765.59
2024-01-14T12:29:39.525Z,96752.59
2024-01-14T12:33:46.037Z,96757.34
2024-01-14T12:37:50.016Z,96745.38
2024-01-14T12:41:55.045Z,96736.69
2024-01-14T12:45:59.871Z,96738.75
2024-01-14T12:50:03.067Z,96736.22
2024-01-14T12:54:09.743Z,96715.19
2024-01-14T12:58:15.792Z,96715.84
2024-01-14T13:02:20.172Z,96713.03
2024-01-14T13:06:23.018Z,96709.41
2024-01-14T13:10:25.769Z,96697.00
2024-01-14T13:14:30.345Z,96690.19
2024-01-14T13:18:34.671Z,96676.66
2024-01-14T13:22:38.060Z,96673.44
2024-01-14T13:26:42.936Z,96662.28
2024-01-14T13:30:45.884Z,96670.84
2024-01-14T13:34:50.010Z,96659.41
2024-01-14T13:38:52.748Z,96658.75
2024-01-14T13:42:55.495Z,96667.34
2024-01-14T13:46:58.222Z,96646.63
2024-01-14T13:51:02.503Z,96641.31
2024-01-14T13:55:06.075Z,96636.84
2024-01-14T13:59:09.574Z,96635.66
2024-01-14T14:03:12.594Z,96620.00
2024-01-14T14:07:16.757Z,96626.84
2024-01-14T14:11:19.653Z,96611.53
2024-01-14T14:15:22.362Z,96616.81
2024-01-14T14:19:25.198Z,96613.31
2024-01-14T14:23:30.668Z,96611.19
2024-01-14T14:27:33.472Z,96602.97
2024-01-14T14:31:47.393Z,96602.25
2024-01-14T14:35:52.248Z,96584.22
2024-01-14T14:39:56.368Z,96578.13
2024-01-14T14:43:59.310Z,96574.97
2024-01-14T14:48:02.137Z,96568.69
2024-01-14T14:52:05.294Z,96560.72
2024-01-14T14:56:09.421Z,96568.50
2024-01-14T15:00:13.667Z,96552.91
2024-01-14T15:04:17.230Z,96556.31
2024-01-14T15:08:20.112Z,96548.44
2024-01-14T15:12:24.183Z,96545.53
2024-01-14T15:16:26.893Z,96534.66
2024-01-14T15:20:29.780Z,96542.31
2024-01-14T15:24:32.643Z,96535.72
2024-01-14T15:28:36.754Z,96537.41
2024-01-14T15:32:39.878Z,96531.78
2024-01-14T15:36:42.873Z,96522.31
2024-01-14T15:40:49.440Z,96512.88
2024-01-14T15:44:55.708Z,96509.88
2024-01-14T15:48:58.671Z,96498.69
2024-01-14T15:53:01.949Z,96494.44
2024-01-14T15:57:07.990Z,96488.34
2024-01-14T16:01:14.202Z,96491.72
2024-01-14T16:05:17.866Z,96494.94
2024-01-14T16:09:21.124Z,96492.34
2024-01-14T16:13:23.933Z,96474.69
2024-01-14T16:17:28.077Z,96472.72
2024-01-14T16:21:30.825Z,96467.78
2024-01-14T16:25:33.624Z,96461.91
2024-01-14T16:29:36.378Z,96446.69
2024-01-14T16:33:41.823Z,96464.03
2024-01-14T16:37:45.401Z,96459.00
2024-01-14T16:41:48.062Z,96463.47
2024-01-14T16:45:51.797Z,96454.44
2024-01-14T16:49:56.232Z,96446.38
2024-01-14T16:53:59.986Z,96448.75
2024-01-14T16:58:03.328Z,96434.31
2024-01-14T17:02:06.569Z,96444.28
2024-01-14T17:06:13.695Z,96427.50
2024-01-14T17:10:18.073Z,96427.56
2024-01-14T17:14:20.979Z,96418.94
2024-01-14T17:18:23.767Z,96419.75
2024-01-14T17:22:27.871Z,96423.25
2024-01-14T17:26:30.576Z,96420.28
2024-01-14T17:30:33.546Z,96420.81
2024-01-14T17:34:37.420Z,96409.56
2024-01-14T17:38:41.915Z,96396.66
2024-01-14T17:42:44.667Z,96389.59
2024-01-14T17:46:47.322Z,96389.88
2024-01-14T17:50:50.005Z,96389.31
2024-01-14T17:54:54.120Z,96395.94
2024-01-14T17:58:56.817Z,96375.91
2024-01-14T18:03:05.292Z,96388.38
2024-01-14T18:07:08.770Z,96370.75
2024-01-14T18:11:12.834Z,96363.75
2024-01-14T18:15:18.029Z,96367.47
2024-01-14T18:19:20.890Z,96364.97
2024-01-14T18:23:32.389Z,96360.34
2024-01-14T18:27:36.386Z,96353.09
2024-01-14T18:31:39.170Z,96348.19
2024-01-14T18:35:43.621Z,96342.44
2024-01-14T18:39:48.081Z,96339.94
2024-01-14T18:43:52.649Z,96330.38
2024-01-14T18:47:55.372Z,96335.13
2024-01-14T18:52:01.470Z,96331.06
2024-01-14T18:56:04.496Z,96320.19
2024-01-14T19:00:09.994Z,96319.09
2024-01-14T19:04:12.949Z,96307.31
2024-01-14T19:08:16.063Z,96300.50
2024-01-14T19:12:20.995Z,96309.44
2024-01-14T19:16:25.394Z,96301.91
2024-01-14T19:20:28.044Z,96292.53
2024-01-14T19:24:30.741Z,96280.19
2024-01-14T19:28:33.833Z,96272.97
2024-01-14T19:32:37.876Z,96273.72
2024-01-14T19:36:40.624Z,96267.31
2024-01-14T19:40:43.483Z,96276.31
2024-01-14T19:44:46.161Z,96273.97
2024-01-14T19:48:50.222Z,96264.63
2024-01-14T19:52:52.957Z,96265.03
2024-01-14T19:56:56.014Z,96259.34
2024-01-14T20:00:58.914Z,96248.28
2024-01-14T20:05:03.049Z,96243.66
2024-01-14T20:09:05.840Z,96241.50
2024-01-14T20:13:08.601Z,96236.22
2024-01-14T20:17:11.277Z,96229.13
2024-01-14T20:21:15.616Z,96219.56
2024-01-14T20:25:18.380Z,96226.03
2024-01-14T20:29:21.131Z,96221.69
2024-01-14T20:33:26.834Z,96205.38
2024-01-14T20:37:30.940Z,96205.25
2024-01-14T20:41:33.858Z,96204.50
2024-01-14T20:45:36.699Z,96193.50
2024-01-14T20:49:41.302Z,96208.75
2024-01-14T20:53:45.912Z,96194.50
2024-01-14T20:57:48.631Z,96184.38
2024-01-14T21:01:51.650Z,96178.16
2024-01-14T21:05:54.495Z,96176.91
2024-01-14T21:09:58.693Z,96160.78
2024-01-14T21:14:01.551Z,96162.00
2024-01-14T21:18:04.595Z,96162.72
2024-01-14T21:22:07.919Z,96159.22
2024-01-14T21:26:12.022Z,96155.91
2024-01-14T21:30:15.708Z,96159.41
2024-01-14T21:34:18.734Z,96153.69
2024-01-14T21:38:21.630Z,96148.66
2024-01-14T21:42:25.747Z,96136.53
2024-01-14T21:46:28.543Z,96137.38
2024-01-14T21:50:31.239Z,96125.84
2024-01-14T21:54:34.307Z,96107.25
2024-01-14T21:58:38.354Z,96116.66
2024-01-14T22:02:41.082Z,96114.84
2024-01-14T22:06:43.849Z,96112.19
2024-01-14T22:10:46.551Z,96119.38
2024-01-14T22:14:50.589Z,96120.66
2024-01-14T22:18:53.665Z,96138.94
2024-01-14T22:22:56.482Z,96129.47
2024-01-14T22:26:59.148Z,96125.09
2024-01-14T22:31:03.176Z,96130.97
2024-01-14T22:35:07.114Z,96125.41
2024-01-14T22:39:09.817Z,96123.50
2024-01-14T22:43:12.582Z,96106.00
2024-01-14T22:47:16.628Z,96112.94
2024-01-14T22:51:19.433Z,96103.00
2024-01-14T22:55:22.209Z,96089.59
2024-01-14T22:59:24.866Z,96085.16
2024-01-14T23:03:28.964Z,96088.84
2024-01-14T23:07:31.672Z,96095.88
2024-01-14T23:11:34.378Z,96098.66
2024-01-14T23:15:37.176Z,96096.94
2024-01-14T23:19:41.784Z,96102.66
2024-01-14T23:23:44.612Z,96105.66
2024-01-14T23:27:47.350Z,96091.19
2024-01-14T23:31:50.203Z,96076.75
2024-01-14T23:35:54.242Z,96077.50
2024-01-14T23:39:56.923Z,96068.31
2024-01-14T23:43:59.602Z,96064.00
2024-01-14T23:48:02.500Z,96079.91
2024-01-14T23:52:07.412Z,96073.63
2024-01-14T23:56:10.110Z,96057.13
